createdAt,value
2024-03-05T00:00:29.162Z,18.06
2024-03-05T00:03:24.685Z,18.14
2024-03-05T00:06:20.305Z,15.6
2024-03-05T00:09:15.810Z,15.24
2024-03-05T00:12:12.368Z,14.64
2024-03-05T00:15:08.932Z,14.739999999999998
2024-03-05T00:18:05.612Z,16.06
2024-03-05T00:21:01.067Z,14.14
2024-03-05T00:23:56.610Z,12.18
2024-03-05T00:26:54.149Z,12.48
2024-03-05T00:29:49.710Z,11.520000000000001
2024-03-05T00:32:45.308Z,12.7
2024-03-05T00:35:42.849Z,12.74
2024-03-05T00:38:39.379Z,13.4
2024-03-05T00:41:34.978Z,13.16
2024-03-05T00:44:31.557Z,14.580000000000002
2024-03-05T00:47:27.074Z,12.64
2024-03-05T00:50:23.654Z,13.5
2024-03-05T00:53:19.203Z,15.3
2024-03-05T00:56:14.767Z,16.8
2024-03-05T00:59:12.342Z,18.040000000000003
2024-03-05T01:02:07.954Z,14.24
2024-03-05T01:05:07.459Z,15.52
2024-03-05T01:08:04.055Z,15.440000000000001
2024-03-05T01:11:00.968Z,15
2024-03-05T01:13:56.222Z,18.080000000000002
2024-03-05T01:16:52.770Z,18.240000000000002
2024-03-05T01:19:48.275Z,14.739999999999998
2024-03-05T01:22:43.877Z,14.379999999999999
2024-03-05T01:25:42.409Z,12.280000000000001
2024-03-05T01:28:39.959Z,14.7
2024-03-05T01:31:35.513Z,14.520000000000001
2024-03-05T01:37:37.567Z,13.819999999999999
2024-03-05T01:40:33.088Z,15.080000000000002
2024-03-05T01:43:31.705Z,15.8
2024-03-05T01:46:29.273Z,14
2024-03-05T01:49:25.875Z,14.52
2024-03-05T01:52:23.384Z,12.74
2024-03-05T01:55:19.910Z,13.3
2024-03-05T01:58:18.515Z,12.940000000000001
2024-03-05T02:01:16.147Z,12.98
2024-03-05T02:04:15.583Z,13.540000000000001
2024-03-05T02:07:14.231Z,13.500000000000004
2024-03-05T02:10:10.666Z,12.88
2024-03-05T02:13:10.250Z,14.36
2024-03-05T02:16:06.809Z,15.84
2024-03-05T02:19:04.365Z,14.84
2024-03-05T02:22:02.950Z,12.739999999999998
2024-03-05T02:24:59.463Z,13.939999999999998
2024-03-05T02:27:56.035Z,13.959999999999999
2024-03-05T02:30:52.564Z,15.319999999999999
2024-03-05T02:33:49.106Z,15.5
2024-03-05T02:36:44.685Z,15.36
2024-03-05T02:39:40.259Z,14.62
2024-03-05T02:42:36.793Z,13.919999999999998
2024-03-05T02:45:32.382Z,12.28
2024-03-05T02:48:28.025Z,12.52
2024-03-05T02:51:24.564Z,12.959999999999999
2024-03-05T02:54:20.055Z,11.84
2024-03-05T02:57:15.605Z,13.020000000000001
2024-03-05T03:00:20.647Z,11.7
2024-03-05T03:03:17.720Z,12.02
2024-03-05T03:06:16.292Z,9.62
2024-03-05T03:09:12.807Z,10.98
2024-03-05T03:12:14.420Z,10.440000000000001
2024-03-05T03:15:10.958Z,12.52
2024-03-05T03:18:07.600Z,11.64
2024-03-05T03:21:06.047Z,12.28
2024-03-05T03:24:01.599Z,12.259999999999998
2024-03-05T03:26:58.157Z,11.68
2024-03-05T03:29:53.815Z,11.639999999999999
2024-03-05T03:32:50.336Z,11.540000000000001
2024-03-05T03:35:46.840Z,10.719999999999999
2024-03-05T03:38:43.403Z,11.219999999999999
2024-03-05T03:41:40.951Z,11.22
2024-03-05T03:44:36.526Z,10.120000000000001
2024-03-05T03:47:32.086Z,11
2024-03-05T03:50:27.622Z,10.959999999999999
2024-03-05T03:53:23.209Z,10.8
2024-03-05T03:56:18.760Z,10.719999999999999
2024-03-05T03:59:15.331Z,9.86
2024-03-05T04:02:10.960Z,10.36
2024-03-05T04:05:10.410Z,10.84
2024-03-05T04:08:07.054Z,11.500000000000002
2024-03-05T04:11:04.624Z,11.34
2024-03-05T04:14:04.324Z,10.56
2024-03-05T04:17:01.667Z,12.14
2024-03-05T04:19:57.559Z,11.78
2024-03-05T04:22:54.841Z,11.76
2024-03-05T04:25:59.440Z,11.799999999999999
2024-03-05T04:29:02.032Z,11.4
2024-03-05T04:35:11.962Z,11.339999999999998
2024-03-05T04:38:08.480Z,10.72
2024-03-05T04:41:06.126Z,12.84
2024-03-05T04:44:02.639Z,13.279999999999998
2024-03-05T04:46:59.179Z,12.5
2024-03-05T04:49:55.735Z,9.919999999999998
2024-03-05T04:52:53.308Z,11.5
2024-03-05T04:55:49.829Z,11.28
2024-03-05T04:58:46.416Z,11.879999999999999
2024-03-05T05:01:41.967Z,14.579999999999998
2024-03-05T05:04:38.579Z,13.3
2024-03-05T05:07:35.126Z,12.16
2024-03-05T05:10:32.638Z,12.419999999999998
2024-03-05T05:13:28.259Z,12.98
2024-03-05T05:16:27.878Z,12.540000000000001
2024-03-05T05:19:26.406Z,12.919999999999998
2024-03-05T05:22:22.958Z,14.5
2024-03-05T05:25:20.480Z,22.06
2024-03-05T05:28:16.001Z,15.079999999999998
2024-03-05T05:31:24.529Z,15.820000000000002
2024-03-05T05:34:22.057Z,30.079999999999995
2024-03-05T05:37:18.600Z,16.720000000000002
2024-03-05T05:40:20.354Z,17.699999999999996
2024-03-05T05:43:20.772Z,19.72
2024-03-05T05:46:24.269Z,16.299999999999997
2024-03-05T05:49:22.012Z,14.8
2024-03-05T05:52:18.384Z,14.88
2024-03-05T05:55:17.100Z,17.3
2024-03-05T05:58:14.470Z,16.9
2024-03-05T06:01:15.429Z,23.4
2024-03-05T06:04:12.627Z,28.54
2024-03-05T06:07:11.849Z,30.740000000000002
2024-03-05T06:10:08.750Z,32.3
2024-03-05T06:13:04.238Z,32.8
2024-03-05T06:16:00.820Z,30.02
2024-03-05T06:18:57.324Z,29.560000000000002
2024-03-05T06:21:54.030Z,26.879999999999995
2024-03-05T06:24:49.509Z,22.84
2024-03-05T06:27:47.111Z,21.2
2024-03-05T06:30:49.606Z,21.080000000000002
2024-03-05T06:33:45.174Z,21.240000000000002
2024-03-05T06:36:42.723Z,17.939999999999998
2024-03-05T06:39:42.262Z,16.86
2024-03-05T06:42:41.832Z,16.740000000000002
2024-03-05T06:45:43.363Z,15.5
2024-03-05T06:48:47.916Z,15.38
2024-03-05T06:52:16.406Z,13.36
2024-03-05T06:55:48.406Z,11.819999999999999
2024-03-05T06:58:45.466Z,12.679999999999998
2024-03-05T07:01:41.074Z,13.38
2024-03-05T07:04:40.527Z,10.84
2024-03-05T07:07:36.100Z,9.86
2024-03-05T07:10:35.757Z,15.2
2024-03-05T07:13:32.307Z,11.46
2024-03-05T07:16:32.743Z,9.96
2024-03-05T07:19:30.335Z,9.979999999999999
2024-03-05T07:22:28.841Z,11.7
2024-03-05T07:25:25.454Z,11.3
2024-03-05T07:28:21.954Z,11.080000000000002
2024-03-05T07:31:20.188Z,10.14
2024-03-05T07:34:16.079Z,12.759999999999998
2024-03-05T07:37:13.610Z,15.84
2024-03-05T07:40:21.200Z,11.48
2024-03-05T07:43:20.717Z,8.32
2024-03-05T07:46:18.370Z,9.120000000000001
2024-03-05T07:49:15.057Z,9.12
2024-03-05T07:52:10.394Z,9.040000000000001
2024-03-05T07:55:06.920Z,8.179999999999998
2024-03-05T07:58:04.506Z,8.179999999999998
2024-03-05T08:01:01.111Z,8.3
2024-03-05T08:03:57.629Z,7.639999999999999
2024-03-05T08:06:55.663Z,6.62
2024-03-05T08:09:54.741Z,6.839999999999999
2024-03-05T08:12:55.302Z,6.959999999999999
2024-03-05T08:15:50.825Z,7.960000000000001
2024-03-05T08:18:47.379Z,6.840000000000001
2024-03-05T08:21:43.958Z,7.159999999999999
2024-03-05T08:24:43.647Z,6.540000000000001
2024-03-05T08:27:43.087Z,6.279999999999999
2024-03-05T08:30:43.908Z,5.74
2024-03-05T08:33:39.174Z,5.92
2024-03-05T08:39:34.292Z,5.54
2024-03-05T08:42:31.852Z,6.260000000000001
2024-03-05T08:45:27.428Z,6.76
2024-03-05T08:48:23.976Z,5.74
2024-03-05T08:51:19.506Z,5.260000000000001
2024-03-05T08:54:17.818Z,5.339999999999999
2024-03-05T08:57:14.562Z,5.8
2024-03-05T09:00:28.214Z,6.140000000000001
2024-03-05T09:03:29.076Z,6.32
2024-03-05T09:06:24.246Z,5.94
2024-03-05T09:09:22.768Z,5.92
2024-03-05T09:12:19.375Z,6.539999999999999
2024-03-05T09:15:16.919Z,6.82
2024-03-05T09:18:15.183Z,5.9399999999999995
2024-03-05T09:21:13.074Z,6.02
2024-03-05T09:24:08.597Z,6.0200000000000005
2024-03-05T09:27:04.173Z,5.6
2024-03-05T09:30:01.742Z,6.18
2024-03-05T09:32:59.296Z,6.14
2024-03-05T09:35:58.834Z,8.26
2024-03-05T09:38:56.382Z,7.9
2024-03-05T09:41:53.933Z,7.0200000000000005
2024-03-05T09:48:10.120Z,6.359999999999999
2024-03-05T09:51:11.245Z,5.5600000000000005
2024-03-05T09:54:12.133Z,6.7
2024-03-05T09:57:09.654Z,6.06
2024-03-05T10:00:16.431Z,6.82
2024-03-05T10:03:11.776Z,6.8199999999999985
2024-03-05T10:06:12.329Z,6.140000000000001
2024-03-05T10:09:10.864Z,5.96
2024-03-05T10:12:14.408Z,6.32
2024-03-05T10:15:12.961Z,6.28
2024-03-05T10:18:14.523Z,5.32
2024-03-05T10:21:20.201Z,5.8999999999999995
2024-03-05T10:24:28.581Z,6.0200000000000005
2024-03-05T10:27:29.119Z,5.3
2024-03-05T10:30:25.675Z,5.66
2024-03-05T10:33:28.223Z,6.24
2024-03-05T10:36:27.764Z,5.4
2024-03-05T10:39:29.183Z,6.180000000000001
2024-03-05T10:42:33.845Z,6.68
2024-03-05T10:45:33.433Z,5.8999999999999995
2024-03-05T10:48:29.968Z,5.66
2024-03-05T10:51:31.513Z,7
2024-03-05T10:54:33.582Z,6.460000000000001
2024-03-05T10:57:30.597Z,5.64
2024-03-05T11:00:27.154Z,5.68
2024-03-05T11:03:29.714Z,6.139999999999999
2024-03-05T11:06:27.277Z,5.8199999999999985
2024-03-05T11:09:24.845Z,5.340000000000001
2024-03-05T11:12:24.378Z,4.84
2024-03-05T11:15:22.966Z,4.9
2024-03-05T11:18:30.010Z,6.08
2024-03-05T11:21:27.370Z,5.78
2024-03-05T11:24:32.572Z,5.5600000000000005
2024-03-05T11:27:35.080Z,5
2024-03-05T11:30:42.628Z,5.5600000000000005
2024-03-05T11:33:41.195Z,6.279999999999999
2024-03-05T11:37:01.670Z,5.9
2024-03-05T11:40:11.344Z,6.540000000000001
2024-03-05T11:43:07.769Z,6.5
2024-03-05T11:46:35.269Z,6.1
2024-03-05T11:49:35.833Z,7.26
2024-03-05T11:52:32.384Z,5.5200000000000005
2024-03-05T11:55:33.014Z,5.7
2024-03-05T11:58:29.482Z,6.639999999999999
2024-03-05T12:01:33.097Z,7.220000000000001
2024-03-05T12:04:32.571Z,6.6
2024-03-05T12:07:30.136Z,5.94
2024-03-05T12:10:32.886Z,6.460000000000001
2024-03-05T12:13:33.227Z,5.960000000000001
2024-03-05T12:16:39.831Z,6.04
2024-03-05T12:19:41.477Z,5.54
2024-03-05T12:22:49.900Z,5.34
2024-03-05T12:25:48.463Z,6.12
2024-03-05T12:28:43.971Z,5.82
2024-03-05T12:31:42.464Z,6.32
2024-03-05T12:34:41.052Z,5.4
2024-03-05T12:37:40.592Z,5.279999999999999
2024-03-05T12:40:38.211Z,4.779999999999999
2024-03-05T12:43:50.717Z,5.92
2024-03-05T12:46:51.295Z,6.14
2024-03-05T12:49:48.902Z,6.18
2024-03-05T12:53:00.316Z,5.779999999999999
2024-03-05T12:56:02.008Z,6.12
2024-03-05T12:58:59.454Z,5.839999999999999
2024-03-05T13:01:57.140Z,5.159999999999999
2024-03-05T13:04:57.020Z,5.08
2024-03-05T13:07:59.817Z,4.24
2024-03-05T13:10:56.752Z,4.760000000000001
2024-03-05T13:13:57.197Z,4.319999999999999
2024-03-05T13:16:53.883Z,4.32
2024-03-05T13:19:49.307Z,5.08
2024-03-05T13:22:45.886Z,4.42
2024-03-05T13:25:48.361Z,5.3
2024-03-05T13:28:47.978Z,5.779999999999999
2024-03-05T13:31:45.512Z,5.58
2024-03-05T13:34:45.158Z,6.14
2024-03-05T13:37:48.815Z,5.18
2024-03-05T13:40:46.160Z,5.92
2024-03-05T13:43:45.768Z,4.74
2024-03-05T13:46:44.253Z,5.9
2024-03-05T13:49:41.837Z,5.659999999999999
2024-03-05T13:52:43.790Z,5.540000000000001
2024-03-05T13:55:42.989Z,6.26
2024-03-05T13:58:38.472Z,5.88
2024-03-05T14:01:36.102Z,5.9
2024-03-05T14:04:37.134Z,6.16
2024-03-05T14:07:37.136Z,5.220000000000001
2024-03-05T14:10:34.689Z,6.139999999999999
2024-03-05T14:13:39.227Z,5.859999999999999
2024-03-05T14:16:39.829Z,6.260000000000001
2024-03-05T14:19:37.362Z,5.8
2024-03-05T14:22:33.660Z,6.94
2024-03-05T14:25:30.805Z,11.4
2024-03-05T14:28:27.009Z,7.42
2024-03-05T14:31:24.315Z,5.76
2024-03-05T14:34:22.175Z,8.360000000000001
2024-03-05T14:37:19.655Z,5.42
2024-03-05T14:40:19.233Z,5.9
2024-03-05T14:43:17.800Z,7.44
2024-03-05T14:46:14.278Z,5
2024-03-05T14:49:11.895Z,5.340000000000001
2024-03-05T14:52:07.435Z,6.639999999999999
2024-03-05T14:58:49.829Z,9.620000000000001
2024-03-05T15:04:46.950Z,9.639999999999999
2024-03-05T15:07:44.267Z,7.0200000000000005
2024-03-05T15:10:44.863Z,7.080000000000001
2024-03-05T15:13:40.234Z,6.8
2024-03-05T15:16:38.784Z,7.5600000000000005
2024-03-05T15:19:35.348Z,6.18
2024-03-05T15:22:30.896Z,6.459999999999999
2024-03-05T15:25:31.530Z,7.040000000000001
2024-03-05T15:28:30.062Z,6.460000000000001
2024-03-05T15:31:25.564Z,21.119999999999997
2024-03-05T15:34:22.199Z,25.8
2024-03-05T15:37:23.672Z,10.66
2024-03-05T15:40:21.863Z,7.9799999999999995
2024-03-05T15:43:19.776Z,14.16
2024-03-05T15:46:16.340Z,14.86
2024-03-05T15:49:15.889Z,14.48
2024-03-05T15:52:14.474Z,17.18
2024-03-05T15:55:11.995Z,22.580000000000002
2024-03-05T15:58:41.673Z,20.619999999999997
2024-03-05T16:05:13.681Z,19.1
2024-03-05T16:13:07.116Z,13.319999999999999
2024-03-05T16:16:10.635Z,11.48
2024-03-05T16:19:14.124Z,11.219999999999999
2024-03-05T16:22:13.722Z,8.66
2024-03-05T16:25:18.538Z,9.3
2024-03-05T16:28:22.815Z,8.260000000000002
2024-03-05T16:31:22.309Z,14.76
2024-03-05T16:34:25.894Z,11.719999999999999
2024-03-05T16:37:29.292Z,19.380000000000003
2024-03-05T16:40:26.968Z,12.620000000000001
2024-03-05T16:43:24.518Z,7.639999999999999
2024-03-05T16:46:21.083Z,7.94
2024-03-05T16:49:16.678Z,9.36
2024-03-05T16:52:17.848Z,7.32
2024-03-05T16:55:23.778Z,6.220000000000001
2024-03-05T16:58:29.535Z,7.32
2024-03-05T17:01:29.885Z,7.08
2024-03-05T17:04:29.363Z,8.78
2024-03-05T17:07:33.943Z,8.940000000000001
2024-03-05T17:10:35.377Z,8.52
2024-03-05T17:13:43.034Z,8.739999999999998
2024-03-05T17:19:49.181Z,13.219999999999999
2024-03-05T17:22:48.669Z,10.2
2024-03-05T17:25:46.204Z,9.42
2024-03-05T17:28:48.776Z,15.5
2024-03-05T17:34:58.870Z,32.12
2024-03-05T17:38:02.435Z,64.67999999999999
2024-03-05T17:41:00.842Z,99.88000000000001
2024-03-05T17:43:58.437Z,67.92
2024-03-05T17:46:57.032Z,65.08000000000001
2024-03-05T17:49:58.578Z,78.64
2024-03-05T17:53:00.081Z,60.92
2024-03-05T17:56:04.564Z,61.14000000000001
2024-03-05T17:59:03.218Z,77.42
2024-03-05T18:02:04.598Z,79.47999999999999
2024-03-05T18:05:07.346Z,96.34
2024-03-05T18:08:03.957Z,58.720000000000006
2024-03-05T18:11:07.432Z,44.08
2024-03-05T18:14:15.293Z,30.68
2024-03-05T18:17:17.447Z,30.3
2024-03-05T18:20:18.027Z,38.7
2024-03-05T18:23:18.545Z,29.419999999999998
2024-03-05T18:26:22.341Z,42.17999999999999
2024-03-05T18:29:19.669Z,52.279999999999994
2024-03-05T18:32:26.189Z,43.02
2024-03-05T18:35:32.738Z,44.2
2024-03-05T18:38:39.615Z,39.68
2024-03-05T18:41:43.620Z,34.4
2024-03-05T18:44:42.323Z,61.80000000000001
2024-03-05T18:47:54.393Z,50.720000000000006
2024-03-05T18:51:07.379Z,34.059999999999995
2024-03-05T18:54:14.939Z,34.279999999999994
2024-03-05T18:57:20.214Z,33.14
2024-03-05T19:00:21.991Z,27.580000000000002
2024-03-05T19:03:26.553Z,23.939999999999998
2024-03-05T19:06:29.098Z,18.060000000000002
2024-03-05T19:09:30.645Z,15.959999999999999
2024-03-05T19:12:37.169Z,13.540000000000001
2024-03-05T19:15:37.697Z,14.040000000000001
2024-03-05T19:18:39.307Z,11.940000000000001
2024-03-05T19:21:37.794Z,14.219999999999999
2024-03-05T19:24:35.371Z,13.319999999999999
2024-03-05T19:27:41.904Z,13.739999999999998
2024-03-05T19:30:44.425Z,12.84
2024-03-05T19:33:46.481Z,13.2
2024-03-05T19:36:42.604Z,14.5
2024-03-05T19:39:45.088Z,14.2
2024-03-05T19:42:53.655Z,13.040000000000001
2024-03-05T19:45:58.944Z,11.6
2024-03-05T19:49:00.289Z,11.36
2024-03-05T19:52:02.494Z,12.14
2024-03-05T19:55:01.826Z,10.38
2024-03-05T19:58:08.583Z,12.7
2024-03-05T20:01:13.912Z,11.78
2024-03-05T20:04:16.429Z,17.160000000000004
2024-03-05T20:07:14.012Z,15.219999999999999
2024-03-05T20:10:10.523Z,16.94
2024-03-05T20:13:09.057Z,18.939999999999998
2024-03-05T20:16:15.164Z,17.860000000000003
2024-03-05T20:19:11.153Z,16.72
2024-03-05T20:22:15.889Z,16.639999999999997
2024-03-05T20:25:22.318Z,15.2
2024-03-05T20:28:18.794Z,17.04
2024-03-05T20:31:23.309Z,18.22
2024-03-05T20:34:21.922Z,18.46
2024-03-05T20:37:19.466Z,17.720000000000002
2024-03-05T20:40:17.036Z,17.859999999999996
2024-03-05T20:43:14.585Z,18.360000000000003
2024-03-05T20:46:34.094Z,15.6
2024-03-05T20:49:30.708Z,19.28
2024-03-05T20:52:27.260Z,17.8
2024-03-05T20:55:24.300Z,18.560000000000002
2024-03-05T20:58:31.297Z,17.28
2024-03-05T21:01:45.735Z,18.54
2024-03-05T21:04:53.377Z,19.4
2024-03-05T21:08:00.668Z,18.48
2024-03-05T21:11:04.238Z,15.74
2024-03-05T21:14:12.565Z,15.3
2024-03-05T21:17:12.518Z,17.4
2024-03-05T21:20:15.669Z,16.020000000000003
2024-03-05T21:23:18.666Z,14.12
2024-03-05T21:26:35.017Z,16.360000000000003
2024-03-05T21:29:33.631Z,14.6
2024-03-05T21:32:34.017Z,15.74
2024-03-05T21:35:32.817Z,15.9
2024-03-05T21:38:35.631Z,15.7
2024-03-05T21:41:30.789Z,14.74
2024-03-05T21:44:37.282Z,14.280000000000001
2024-03-05T21:47:43.902Z,13.5
2024-03-05T21:50:41.463Z,13.76
2024-03-05T21:53:38.632Z,14.3
2024-03-05T21:56:36.573Z,17.28
2024-03-05T21:59:35.110Z,17.14
2024-03-05T22:02:31.684Z,18.380000000000003
2024-03-05T22:05:29.247Z,17.96
2024-03-05T22:08:25.811Z,15.9
2024-03-05T22:11:22.454Z,17.080000000000002
2024-03-05T22:14:18.955Z,15.34
2024-03-05T22:17:15.482Z,16.82
2024-03-05T22:20:14.098Z,13.38
2024-03-05T22:23:13.610Z,14.1
2024-03-05T22:26:17.128Z,16.5
2024-03-05T22:29:14.690Z,14.9
2024-03-05T22:32:10.394Z,16.44
2024-03-05T22:35:11.106Z,17.419999999999998
2024-03-05T22:38:08.441Z,15.52
2024-03-05T22:41:06.031Z,16.34
2024-03-05T22:44:02.479Z,13.959999999999999
2024-03-05T22:47:00.012Z,11.66
2024-03-05T22:49:55.603Z,12.14
2024-03-05T22:52:53.251Z,12.559999999999999
2024-03-05T22:55:49.713Z,11.940000000000001
2024-03-05T22:58:46.326Z,10.46
2024-03-05T23:01:42.853Z,11.179999999999998
2024-03-05T23:04:39.427Z,11.680000000000001
2024-03-05T23:07:34.907Z,10.64
2024-03-05T23:10:31.564Z,9.96
2024-03-05T23:13:27.055Z,10.120000000000001
2024-03-05T23:16:22.608Z,11.8
2024-03-05T23:19:24.173Z,13.7
2024-03-05T23:22:20.726Z,12.18
2024-03-05T23:25:17.276Z,11.760000000000002
2024-03-05T23:28:14.854Z,11.3
2024-03-05T23:31:11.407Z,11.9
2024-03-05T23:34:07.928Z,11.319999999999999
2024-03-05T23:37:05.558Z,10.620000000000001
2024-03-05T23:40:01.097Z,11.66
2024-03-05T23:42:57.609Z,13.38
2024-03-05T23:45:55.195Z,12.440000000000001
2024-03-05T23:48:50.828Z,11.64
2024-03-05T23:51:46.317Z,11.799999999999999
2024-03-05T23:54:42.866Z,14.080000000000002
2024-03-05T23:57:38.430Z,11.98
